createdAt,value
2023-02-27T00:03:57.272Z,2.30
2023-02-27T00:08:02.665Z,2.10
2023-02-27T00:12:09.160Z,1.90
2023-02-27T00:16:14.973Z,2.10
2023-02-27T00:20:20.950Z,1.90
2023-02-27T00:24:26.852Z,2.00
2023-02-27T00:28:32.113Z,1.90
2023-02-27T00:32:37.613Z,2.00
2023-02-27T00:36:43.287Z,1.90
2023-02-27T00:40:49.116Z,1.60
2023-02-27T00:44:54.336Z,1.50
2023-02-27T00:48:59.634Z,2.00
2023-02-27T00:53:05.669Z,1.70
2023-02-27T00:57:11.103Z,2.00
2023-02-27T01:01:16.520Z,2.20
2023-02-27T01:05:22.119Z,1.90
2023-02-27T01:09:27.886Z,2.20
2023-02-27T01:13:33.122Z,2.00
2023-02-27T01:17:38.757Z,1.40
2023-02-27T01:21:43.989Z,2.00
2023-02-27T01:25:49.767Z,2.10
2023-02-27T01:29:55.035Z,2.00
2023-02-27T01:34:01.352Z,1.80
2023-02-27T01:38:08.736Z,1.30
2023-02-27T01:42:18.890Z,2.50
2023-02-27T01:46:24.296Z,1.90
2023-02-27T01:50:29.626Z,1.60
2023-02-27T01:54:42.085Z,1.90
2023-02-27T01:58:48.920Z,1.70
2023-02-27T02:02:58.199Z,1.80
2023-02-27T02:07:04.936Z,1.60
2023-02-27T02:11:11.077Z,1.20
2023-02-27T02:15:18.466Z,1.80
2023-02-27T02:19:43.357Z,1.30
2023-02-27T02:24:16.955Z,1.90
2023-02-27T02:28:28.107Z,1.80
2023-02-27T02:32:48.046Z,1.30
2023-02-27T02:37:03.644Z,1.40
2023-02-27T02:41:12.587Z,2.10
2023-02-27T02:45:23.010Z,1.00
2023-02-27T02:49:32.720Z,1.60
2023-02-27T02:53:42.556Z,1.90
2023-02-27T02:57:50.645Z,1.60
2023-02-27T03:01:57.831Z,0.70
2023-02-27T03:06:04.875Z,1.70
2023-02-27T03:10:12.915Z,1.70
2023-02-27T03:14:22.742Z,2.40
2023-02-27T03:18:32.114Z,1.80
2023-02-27T03:22:39.057Z,2.60
2023-02-27T03:26:44.955Z,2.80
2023-02-27T03:30:53.445Z,2.50
2023-02-27T03:35:01.186Z,2.50
2023-02-27T03:39:14.168Z,2.10
2023-02-27T03:43:22.696Z,2.60
2023-02-27T03:47:29.035Z,2.30
2023-02-27T03:51:35.001Z,2.40
2023-02-27T03:55:42.422Z,2.50
2023-02-27T03:59:47.736Z,1.50
2023-02-27T04:03:55.624Z,1.80
2023-02-27T04:08:07.569Z,1.20
2023-02-27T04:12:19.632Z,2.10
2023-02-27T04:16:37.945Z,2.20
2023-02-27T04:20:45.314Z,2.10
2023-02-27T04:24:56.552Z,1.90
2023-02-27T04:29:05.292Z,1.30
2023-02-27T04:33:12.213Z,2.40
2023-02-27T04:37:23.810Z,2.00
2023-02-27T04:41:31.320Z,1.50
2023-02-27T04:45:38.545Z,1.10
2023-02-27T04:49:46.379Z,1.80
2023-02-27T04:53:55.590Z,1.90
2023-02-27T04:58:03.818Z,1.90
2023-02-27T05:02:14.698Z,1.80
2023-02-27T05:06:21.592Z,2.40
2023-02-27T05:10:30.089Z,0.90
2023-02-27T05:14:37.218Z,1.60
2023-02-27T05:18:42.837Z,1.40
2023-02-27T05:22:50.790Z,1.40
2023-02-27T05:27:07.388Z,0.30
2023-02-27T05:31:17.100Z,0.70
2023-02-27T05:35:26.851Z,0.90
2023-02-27T05:39:36.520Z,0.50
2023-02-27T05:43:43.395Z,1.00
2023-02-27T05:47:50.465Z,1.00
2023-02-27T05:51:57.281Z,0.40
2023-02-27T05:56:06.615Z,0.40
2023-02-27T06:00:16.624Z,0.70
2023-02-27T06:04:22.061Z,0.70
2023-02-27T06:08:27.876Z,0.30
2023-02-27T06:12:33.146Z,0.80
2023-02-27T06:16:39.212Z,0.60
2023-02-27T06:20:45.147Z,0.30
2023-02-27T06:24:50.646Z,0.80
2023-02-27T06:28:55.880Z,0.50
2023-02-27T06:33:01.162Z,0.70
2023-02-27T06:37:06.729Z,0.50
2023-02-27T06:41:11.952Z,0.70
2023-02-27T06:45:17.704Z,1.00
2023-02-27T06:49:23.305Z,0.30
2023-02-27T06:53:29.062Z,0.20
2023-02-27T06:57:35.133Z,0.20
2023-02-27T07:01:40.654Z,0.70
2023-02-27T07:05:46.260Z,0.50
2023-02-27T07:09:51.885Z,0.50
2023-02-27T07:13:57.125Z,0.50
2023-02-27T07:18:05.609Z,0.70
2023-02-27T07:22:14.415Z,0.80
2023-02-27T07:26:19.862Z,0.70
2023-02-27T07:30:25.099Z,0.70
2023-02-27T07:34:31.409Z,0.60
2023-02-27T07:42:40.557Z,0.60
2023-02-27T07:46:47.431Z,0.90
2023-02-27T07:50:52.718Z,0.60
2023-02-27T07:55:25.277Z,0.30
2023-02-27T07:59:36.905Z,0.30
2023-02-27T08:03:42.347Z,0.60
2023-02-27T08:07:54.892Z,0.60
2023-02-27T08:12:00.246Z,0.30
2023-02-27T08:16:10.679Z,0.80
2023-02-27T08:20:16.481Z,0.40
2023-02-27T08:24:21.782Z,0.50
2023-02-27T08:28:28.888Z,0.70
2023-02-27T08:32:34.840Z,0.60
2023-02-27T08:36:41.118Z,1.30
2023-02-27T08:45:41.002Z,0.30
2023-02-27T08:50:15.531Z,0.10
2023-02-27T08:54:28.224Z,1.00
2023-02-27T08:58:34.707Z,0.70
2023-02-27T09:02:40.764Z,0.70
2023-02-27T09:06:50.501Z,0.80
2023-02-27T09:10:58.891Z,0.80
2023-02-27T09:15:13.258Z,0.80
2023-02-27T09:19:18.491Z,1.10
2023-02-27T09:23:38.571Z,0.70
2023-02-27T09:27:43.841Z,0.80
2023-02-27T09:31:58.474Z,0.90
2023-02-27T09:36:03.853Z,0.70
2023-02-27T09:40:24.968Z,0.40
2023-02-27T09:44:45.828Z,0.50
2023-02-27T09:48:53.143Z,0.70
2023-02-27T09:57:24.073Z,1.20
2023-02-27T10:01:31.947Z,1.00
2023-02-27T10:05:52.090Z,0.90
2023-02-27T10:19:17.758Z,1.10
2023-02-27T10:36:53.255Z,1.10
2023-02-27T10:40:59.212Z,1.10
2023-02-27T10:45:05.730Z,1.20
2023-02-27T10:49:34.634Z,0.70
2023-02-27T10:54:06.209Z,1.30
2023-02-27T10:58:35.059Z,1.10
2023-02-27T11:07:27.474Z,1.00
2023-02-27T11:11:48.838Z,1.40
2023-02-27T11:20:51.800Z,1.60
2023-02-27T11:29:06.652Z,1.30
2023-02-27T11:33:34.099Z,1.30
2023-02-27T11:37:41.357Z,1.20
2023-02-27T11:41:46.745Z,1.30
2023-02-27T11:46:12.746Z,0.90
2023-02-27T11:50:45.536Z,1.40
2023-02-27T11:55:16.064Z,1.00
2023-02-27T11:59:33.000Z,1.30
2023-02-27T12:03:59.256Z,1.60
2023-02-27T12:08:07.595Z,1.10
2023-02-27T12:12:23.387Z,0.90
2023-02-27T12:16:33.586Z,1.40
2023-02-27T12:21:03.093Z,1.30
2023-02-27T12:30:03.895Z,1.10
2023-02-27T12:34:18.666Z,1.20
2023-02-27T12:38:35.371Z,0.70
2023-02-27T12:43:06.004Z,0.90
2023-02-27T12:51:41.742Z,1.30
2023-02-27T12:55:49.874Z,1.70
2023-02-27T13:00:07.822Z,1.30
2023-02-27T13:04:30.035Z,3.00
2023-02-27T13:09:15.772Z,1.00
2023-02-27T13:13:31.094Z,1.30
2023-02-27T13:17:55.560Z,1.70
2023-02-27T13:22:04.121Z,1.10
2023-02-27T13:26:15.542Z,1.10
2023-02-27T13:30:24.953Z,1.10
2023-02-27T13:34:34.484Z,1.80
2023-02-27T13:38:54.341Z,1.20
2023-02-27T13:43:25.539Z,1.30
2023-02-27T13:47:50.894Z,1.40
2023-02-27T13:52:22.564Z,1.30
2023-02-27T13:56:42.216Z,1.00
2023-02-27T14:05:40.252Z,2.60
2023-02-27T14:09:46.809Z,1.60
2023-02-27T14:14:04.931Z,1.40
2023-02-27T14:18:34.206Z,2.20
2023-02-27T14:22:56.456Z,1.70
2023-02-27T14:27:06.278Z,1.50
2023-02-27T14:35:40.211Z,1.70
2023-02-27T14:39:48.776Z,1.40
2023-02-27T14:43:56.877Z,2.20
2023-02-27T14:48:11.675Z,2.70
2023-02-27T14:57:07.492Z,1.70
2023-02-27T15:01:13.058Z,2.10
2023-02-27T15:05:24.374Z,1.60
2023-02-27T15:09:35.049Z,2.00
2023-02-27T15:13:40.750Z,1.20
2023-02-27T15:17:47.018Z,1.50
2023-02-27T15:21:59.776Z,1.60
2023-02-27T15:26:05.320Z,1.50
2023-02-27T15:30:23.879Z,1.20
2023-02-27T15:34:29.793Z,2.10
2023-02-27T15:38:36.287Z,1.80
2023-02-27T15:42:41.816Z,1.80
2023-02-27T15:46:47.968Z,1.70
2023-02-27T15:55:02.279Z,1.50
2023-02-27T15:59:07.988Z,1.70
2023-02-27T16:03:17.218Z,2.10
2023-02-27T16:07:23.519Z,1.50
2023-02-27T16:11:29.465Z,1.40
2023-02-27T16:15:36.441Z,2.40
2023-02-27T16:19:41.690Z,2.90
2023-02-27T16:23:47.557Z,2.80
2023-02-27T16:27:53.457Z,2.40
2023-02-27T16:32:01.139Z,2.20
2023-02-27T16:36:18.756Z,2.00
2023-02-27T16:40:24.969Z,2.10
2023-02-27T16:48:34.740Z,3.20
2023-02-27T16:52:39.986Z,2.90
2023-02-27T16:56:47.345Z,3.20
2023-02-27T17:00:53.019Z,2.90
2023-02-27T17:04:59.573Z,5.10
2023-02-27T17:09:05.426Z,5.90
2023-02-27T17:13:10.656Z,26.20
2023-02-27T17:17:16.049Z,6.00
2023-02-27T17:21:22.076Z,4.20
2023-02-27T17:25:28.036Z,5.00
2023-02-27T17:29:33.698Z,5.00
2023-02-27T17:33:40.074Z,4.10
2023-02-27T17:37:45.305Z,4.10
2023-02-27T17:41:52.998Z,4.20
2023-02-27T17:45:58.605Z,5.10
2023-02-27T17:50:04.207Z,4.40
2023-02-27T17:54:09.690Z,4.10
2023-02-27T17:58:16.962Z,4.60
2023-02-27T18:02:22.880Z,3.70
2023-02-27T18:06:28.835Z,2.40
2023-02-27T18:10:34.281Z,3.90
2023-02-27T18:14:39.506Z,4.90
2023-02-27T18:18:44.870Z,5.70
2023-02-27T18:22:50.142Z,5.50
2023-02-27T18:26:56.249Z,3.10
2023-02-27T18:31:01.906Z,4.30
2023-02-27T18:35:07.636Z,3.50
2023-02-27T18:39:12.866Z,3.70
2023-02-27T18:43:18.089Z,3.70
2023-02-27T18:47:23.362Z,3.10
2023-02-27T18:51:28.639Z,5.20
2023-02-27T18:55:36.103Z,4.30
2023-02-27T18:59:41.947Z,4.50
2023-02-27T19:03:47.577Z,4.30
2023-02-27T19:07:52.792Z,4.30
2023-02-27T19:11:58.120Z,4.10
2023-02-27T19:16:05.674Z,3.90
2023-02-27T19:20:16.486Z,3.30
2023-02-27T19:24:22.129Z,3.20
2023-02-27T19:28:30.197Z,3.80
2023-02-27T19:32:35.414Z,3.90
2023-02-27T19:36:42.674Z,3.90
2023-02-27T19:40:52.748Z,3.20
2023-02-27T19:44:57.906Z,5.30
2023-02-27T19:49:04.410Z,6.10
2023-02-27T19:53:10.101Z,7.40
2023-02-27T19:57:15.398Z,7.20
2023-02-27T20:01:25.154Z,7.80
2023-02-27T20:05:30.438Z,6.00
2023-02-27T20:09:35.736Z,7.50
2023-02-27T20:13:41.074Z,6.60
2023-02-27T20:17:46.339Z,6.60
2023-02-27T20:21:52.130Z,9.20
2023-02-27T20:25:57.545Z,11.10
2023-02-27T20:30:04.950Z,8.90
2023-02-27T20:34:12.984Z,7.20
2023-02-27T20:38:19.975Z,9.30
2023-02-27T20:42:25.217Z,8.50
2023-02-27T20:46:30.837Z,8.40
2023-02-27T20:50:36.699Z,7.30
2023-02-27T20:54:43.378Z,9.60
2023-02-27T20:58:48.804Z,8.90
2023-02-27T21:02:54.121Z,9.10
2023-02-27T21:06:59.706Z,9.00
2023-02-27T21:11:08.837Z,9.50
2023-02-27T21:15:14.321Z,6.70
2023-02-27T21:19:21.809Z,9.50
2023-02-27T21:23:27.013Z,10.30
2023-02-27T21:27:33.396Z,10.20
2023-02-27T21:35:47.551Z,9.90
2023-02-27T21:39:56.807Z,9.90
2023-02-27T21:44:02.693Z,9.20
2023-02-27T21:48:10.236Z,8.30
2023-02-27T21:52:16.230Z,12.40
2023-02-27T21:56:21.442Z,13.90
2023-02-27T22:00:29.380Z,10.50
2023-02-27T22:04:34.633Z,10.00
2023-02-27T22:08:40.680Z,9.60
2023-02-27T22:12:45.931Z,10.20
2023-02-27T22:16:51.492Z,11.50
2023-02-27T22:20:56.742Z,11.10
2023-02-27T22:25:03.385Z,11.00
2023-02-27T22:29:11.119Z,9.60
2023-02-27T22:33:16.458Z,9.90
2023-02-27T22:37:23.210Z,9.30
2023-02-27T22:41:30.640Z,9.80
2023-02-27T22:45:37.025Z,9.20
2023-02-27T22:49:42.647Z,8.80
2023-02-27T22:53:49.984Z,7.80
2023-02-27T22:57:56.656Z,9.70
2023-02-27T23:02:02.041Z,8.90
2023-02-27T23:06:07.853Z,8.70
2023-02-27T23:10:13.640Z,9.30
2023-02-27T23:14:19.696Z,8.80
2023-02-27T23:18:25.570Z,9.20
2023-02-27T23:22:33.657Z,8.40
2023-02-27T23:26:39.170Z,9.80
2023-02-27T23:30:44.511Z,9.20
2023-02-27T23:34:50.027Z,9.20
2023-02-27T23:38:57.188Z,9.00
2023-02-27T23:43:05.059Z,9.10
2023-02-27T23:47:10.286Z,8.10
2023-02-27T23:51:15.633Z,8.50
2023-02-27T23:55:22.237Z,7.70
